createdAt,value
2017-06-19T00:00:25.752Z,0
2017-06-19T00:01:25.119Z,0
2017-06-19T00:02:25.426Z,0
2017-06-19T00:03:25.426Z,0
2017-06-19T00:04:25.417Z,0
2017-06-19T00:05:25.090Z,0
2017-06-19T00:06:25.416Z,0
2017-06-19T00:07:25.384Z,0
2017-06-19T00:08:25.063Z,0
2017-06-19T00:09:25.056Z,0
2017-06-19T00:10:25.355Z,0
2017-06-19T00:11:25.662Z,0
2017-06-19T00:12:25.651Z,0
2017-06-19T00:13:25.337Z,0
2017-06-19T00:14:25.321Z,0
2017-06-19T00:15:25.309Z,0
2017-06-19T00:16:24.686Z,0
2017-06-19T00:17:25.297Z,0
2017-06-19T00:18:24.978Z,0
2017-06-19T00:19:24.654Z,0
2017-06-19T00:20:25.269Z,0
2017-06-19T00:21:25.257Z,0
2017-06-19T00:22:24.930Z,0
2017-06-19T00:23:25.239Z,0
2017-06-19T00:24:24.919Z,0
2017-06-19T00:25:25.224Z,0
2017-06-19T00:26:25.217Z,0
2017-06-19T00:27:25.201Z,0
2017-06-19T00:28:24.880Z,0
2017-06-19T00:29:25.510Z,0
2017-06-19T00:30:25.174Z,0
2017-06-19T00:31:25.165Z,0
2017-06-19T00:32:25.467Z,0
2017-06-19T00:33:25.151Z,0
2017-06-19T00:34:25.452Z,0
2017-06-19T00:35:25.139Z,0
2017-06-19T00:36:25.485Z,0
2017-06-19T00:37:25.112Z,0
2017-06-19T00:38:25.103Z,0
2017-06-19T00:39:25.091Z,0
2017-06-19T00:40:24.775Z,0
2017-06-19T00:41:25.079Z,0
2017-06-19T00:42:25.069Z,0
2017-06-19T00:43:25.062Z,0
2017-06-19T00:44:25.051Z,0
2017-06-19T00:45:25.045Z,0
2017-06-19T00:46:25.032Z,0
2017-06-19T00:47:25.021Z,0
2017-06-19T00:48:24.388Z,0
2017-06-19T00:49:24.691Z,0
2017-06-19T00:50:24.990Z,0
2017-06-19T00:51:24.682Z,0
2017-06-19T00:52:25.298Z,0
2017-06-19T00:53:24.653Z,0
2017-06-19T00:54:24.962Z,0
2017-06-19T00:55:24.641Z,0
2017-06-19T00:56:24.630Z,0
2017-06-19T00:57:24.933Z,0
2017-06-19T00:58:24.919Z,0
2017-06-19T00:59:24.601Z,0
2017-06-19T01:00:24.901Z,0
2017-06-19T01:01:24.267Z,0
2017-06-19T01:02:25.195Z,0
2017-06-19T01:03:24.872Z,0
2017-06-19T01:04:24.240Z,0
2017-06-19T01:05:24.538Z,0
2017-06-19T01:06:24.885Z,0
2017-06-19T01:07:24.528Z,0
2017-06-19T01:08:24.826Z,0
2017-06-19T01:09:24.813Z,0
2017-06-19T01:10:24.497Z,0
2017-06-19T01:11:24.797Z,0
2017-06-19T01:12:24.482Z,0
2017-06-19T01:13:25.112Z,0
2017-06-19T01:14:24.771Z,0
2017-06-19T01:15:24.790Z,0
2017-06-19T01:16:25.068Z,0
2017-06-19T01:17:24.748Z,0
2017-06-19T01:18:24.732Z,0
2017-06-19T01:19:24.722Z,0
2017-06-19T01:20:24.404Z,0
2017-06-19T01:21:24.389Z,0
2017-06-19T01:22:24.703Z,0
2017-06-19T01:23:24.689Z,0
2017-06-19T01:24:24.682Z,0
2017-06-19T01:25:24.350Z,0
2017-06-19T01:26:24.662Z,0
2017-06-19T01:27:24.024Z,0
2017-06-19T01:28:24.639Z,0
2017-06-19T01:29:24.518Z,0
2017-06-19T01:30:24.312Z,0
2017-06-19T01:31:24.615Z,0
2017-06-19T01:32:24.601Z,0
2017-06-19T01:33:24.280Z,0
2017-06-19T01:34:24.583Z,0
2017-06-19T01:35:24.888Z,0
2017-06-19T01:36:24.565Z,0
2017-06-19T01:37:24.243Z,0
2017-06-19T01:38:24.860Z,0
2017-06-19T01:39:24.224Z,0
2017-06-19T01:40:24.524Z,0
2017-06-19T01:41:24.512Z,0
2017-06-19T01:42:24.222Z,0
2017-06-19T01:43:24.497Z,0
2017-06-19T01:44:24.801Z,0
2017-06-19T01:45:24.793Z,0
2017-06-19T01:46:24.777Z,0
2017-06-19T01:47:24.774Z,0
2017-06-19T01:48:24.759Z,0
2017-06-19T01:49:24.446Z,0
2017-06-19T01:50:24.741Z,0
2017-06-19T01:51:24.421Z,0
2017-06-19T01:52:24.408Z,0
2017-06-19T01:53:24.452Z,0
2017-06-19T01:54:24.079Z,0
2017-06-19T01:55:24.384Z,0
2017-06-19T01:56:24.368Z,0
2017-06-19T01:57:24.047Z,0
2017-06-19T01:58:24.352Z,0
2017-06-19T01:59:24.337Z,0
2017-06-19T02:00:24.654Z,0
2017-06-19T02:01:24.322Z,0
2017-06-19T02:02:24.630Z,0
2017-06-19T02:03:23.990Z,0
2017-06-19T02:04:23.981Z,0
2017-06-19T02:05:24.285Z,0
2017-06-19T02:06:24.278Z,0
2017-06-19T02:07:24.265Z,0
2017-06-19T02:08:24.254Z,0
2017-06-19T02:09:23.937Z,0
2017-06-19T02:10:24.550Z,0
2017-06-19T02:11:23.914Z,0
2017-06-19T02:12:24.218Z,0
2017-06-19T02:13:24.205Z,0
2017-06-19T02:14:23.891Z,0
2017-06-19T02:15:24.502Z,0
2017-06-19T02:16:24.180Z,0
2017-06-19T02:17:24.164Z,0
2017-06-19T02:18:23.535Z,0
2017-06-19T02:19:24.458Z,0
2017-06-19T02:20:24.149Z,0
2017-06-19T02:21:24.127Z,0
2017-06-19T02:22:24.443Z,0
2017-06-19T02:23:24.110Z,0
2017-06-19T02:24:24.103Z,0
2017-06-19T02:25:24.096Z,0
2017-06-19T02:26:23.769Z,0
2017-06-19T02:27:24.377Z,0
2017-06-19T02:28:24.377Z,0
2017-06-19T02:29:24.362Z,0
2017-06-19T02:30:23.736Z,4
2017-06-19T02:31:24.381Z,4
2017-06-19T02:32:23.706Z,0
2017-06-19T02:33:24.013Z,0
2017-06-19T02:34:24.387Z,4
2017-06-19T02:35:24.000Z,4
2017-06-19T02:36:23.982Z,0
2017-06-19T02:37:23.350Z,4
2017-06-19T02:38:23.346Z,4
2017-06-19T02:39:23.640Z,4
2017-06-19T02:40:23.967Z,8
2017-06-19T02:41:23.933Z,4
2017-06-19T02:42:23.924Z,8
2017-06-19T02:43:23.600Z,8
2017-06-19T02:44:23.598Z,8
2017-06-19T02:45:23.892Z,8
2017-06-19T02:46:24.229Z,12
2017-06-19T02:47:23.881Z,16
2017-06-19T02:48:24.210Z,12
2017-06-19T02:49:23.226Z,16
2017-06-19T02:50:23.848Z,20
2017-06-19T02:51:23.837Z,20
2017-06-19T02:52:23.511Z,24
2017-06-19T02:53:23.813Z,28
2017-06-19T02:54:24.115Z,32
2017-06-19T02:55:24.109Z,32
2017-06-19T02:56:24.097Z,40
2017-06-19T02:57:24.096Z,44
2017-06-19T02:58:23.762Z,44
2017-06-19T02:59:24.065Z,52
2017-06-19T03:00:24.055Z,56
2017-06-19T03:01:23.734Z,60
2017-06-19T03:02:23.726Z,68
2017-06-19T03:03:23.405Z,76
2017-06-19T03:04:23.702Z,84
2017-06-19T03:05:23.700Z,92
2017-06-19T03:06:23.688Z,100
2017-06-19T03:07:23.363Z,104
2017-06-19T03:08:23.674Z,116
2017-06-19T03:09:23.660Z,128
2017-06-19T03:10:23.332Z,136
2017-06-19T03:11:23.632Z,144
2017-06-19T03:12:23.672Z,156
2017-06-19T03:13:22.993Z,168
2017-06-19T03:14:23.616Z,180
2017-06-19T03:15:23.910Z,192
2017-06-19T03:16:23.586Z,204
2017-06-19T03:17:22.956Z,216
2017-06-19T03:18:23.254Z,232
2017-06-19T03:19:23.553Z,244
2017-06-19T03:20:23.232Z,260
2017-06-19T03:21:23.227Z,272
2017-06-19T03:22:23.227Z,288
2017-06-19T03:23:23.520Z,308
2017-06-19T03:24:23.817Z,320
2017-06-19T03:25:23.177Z,336
2017-06-19T03:26:23.173Z,352
2017-06-19T03:27:23.163Z,372
2017-06-19T03:28:23.775Z,388
2017-06-19T03:29:23.654Z,404
2017-06-19T03:30:23.760Z,420
2017-06-19T03:31:23.752Z,436
2017-06-19T03:32:23.158Z,452
2017-06-19T03:33:23.725Z,472
2017-06-19T03:34:23.415Z,488
2017-06-19T03:35:23.703Z,504
2017-06-19T03:36:23.394Z,520
2017-06-19T03:37:23.367Z,536
2017-06-19T03:38:23.401Z,556
2017-06-19T03:39:23.349Z,572
2017-06-19T03:40:22.714Z,588
2017-06-19T03:41:23.331Z,604
2017-06-19T03:42:23.637Z,624
2017-06-19T03:43:23.316Z,640
2017-06-19T03:44:22.984Z,656
2017-06-19T03:45:22.985Z,672
2017-06-19T03:46:23.275Z,688
2017-06-19T03:47:23.274Z,708
2017-06-19T03:48:23.263Z,724
2017-06-19T03:49:22.942Z,740
2017-06-19T03:50:22.927Z,752
2017-06-19T03:51:22.912Z,772
2017-06-19T03:52:22.595Z,788
2017-06-19T03:53:23.519Z,804
2017-06-19T03:54:22.883Z,820
2017-06-19T03:55:22.877Z,832
2017-06-19T03:56:22.871Z,848
2017-06-19T03:57:23.243Z,864
2017-06-19T03:58:23.171Z,880
2017-06-19T03:59:23.501Z,896
2017-06-19T04:00:22.836Z,908
2017-06-19T04:01:23.456Z,920
2017-06-19T04:02:22.814Z,936
2017-06-19T04:03:23.491Z,952
2017-06-19T04:04:22.784Z,968
2017-06-19T04:05:23.105Z,980
2017-06-19T04:06:23.420Z,996
2017-06-19T04:07:23.061Z,1004
2017-06-19T04:08:22.762Z,1020
2017-06-19T04:09:22.436Z,1032
2017-06-19T04:10:23.061Z,1044
2017-06-19T04:11:23.367Z,1056
2017-06-19T04:12:23.368Z,1068
2017-06-19T04:13:23.054Z,1076
2017-06-19T04:14:23.327Z,1088
2017-06-19T04:15:23.310Z,1100
2017-06-19T04:16:22.663Z,1108
2017-06-19T04:17:23.278Z,1124
2017-06-19T04:18:22.998Z,1132
2017-06-19T04:19:22.638Z,1140
2017-06-19T04:20:22.936Z,1152
2017-06-19T04:21:22.612Z,1164
2017-06-19T04:22:22.601Z,1172
2017-06-19T04:23:23.221Z,1184
2017-06-19T04:24:22.892Z,1188
2017-06-19T04:25:23.193Z,1196
2017-06-19T04:26:22.563Z,1208
2017-06-19T04:27:22.865Z,1216
2017-06-19T04:28:22.855Z,1228
2017-06-19T04:29:23.162Z,1232
2017-06-19T04:30:22.523Z,1244
2017-06-19T04:31:22.519Z,1252
2017-06-19T04:32:23.135Z,1260
2017-06-19T04:33:23.129Z,1268
2017-06-19T04:34:22.480Z,1276
2017-06-19T04:35:23.111Z,1284
2017-06-19T04:36:23.140Z,1292
2017-06-19T04:37:22.514Z,1296
2017-06-19T04:38:22.443Z,1304
2017-06-19T04:39:22.435Z,1312
2017-06-19T04:40:22.765Z,1316
2017-06-19T04:41:22.728Z,1328
2017-06-19T04:42:22.417Z,1336
2017-06-19T04:43:22.410Z,1340
2017-06-19T04:44:22.719Z,1348
2017-06-19T04:45:22.998Z,1352
2017-06-19T04:46:22.397Z,1360
2017-06-19T04:47:22.045Z,1368
2017-06-19T04:48:22.658Z,1372
2017-06-19T04:49:22.343Z,1376
2017-06-19T04:50:22.014Z,1380
2017-06-19T04:51:22.320Z,1392
2017-06-19T04:52:22.625Z,1396
2017-06-19T04:53:22.931Z,1404
2017-06-19T04:54:22.603Z,1408
2017-06-19T04:55:22.602Z,1412
2017-06-19T04:56:22.588Z,1416
2017-06-19T04:57:22.259Z,1424
2017-06-19T04:58:22.281Z,1428
2017-06-19T04:59:22.874Z,1440
2017-06-19T05:00:22.236Z,1444
2017-06-19T05:01:22.540Z,1452
2017-06-19T05:02:22.219Z,1460
2017-06-19T05:03:22.831Z,1468
2017-06-19T05:04:22.817Z,1472
2017-06-19T05:05:22.500Z,1476
2017-06-19T05:06:22.490Z,1480
2017-06-19T05:07:22.791Z,1488
2017-06-19T05:08:22.781Z,1492
2017-06-19T05:09:22.458Z,1504
2017-06-19T05:10:22.142Z,1512
2017-06-19T05:11:22.439Z,1512
2017-06-19T05:12:22.128Z,1520
2017-06-19T05:13:22.104Z,1532
2017-06-19T05:14:22.428Z,1532
2017-06-19T05:15:22.405Z,1544
2017-06-19T05:16:22.391Z,1548
2017-06-19T05:17:22.077Z,1552
2017-06-19T05:18:22.060Z,1560
2017-06-19T05:19:22.368Z,1564
2017-06-19T05:20:22.353Z,1572
2017-06-19T05:21:22.662Z,1580
2017-06-19T05:22:22.023Z,1588
2017-06-19T05:23:22.325Z,1592
2017-06-19T05:24:22.631Z,1600
2017-06-19T05:25:22.312Z,1604
2017-06-19T05:26:21.989Z,1612
2017-06-19T05:27:22.292Z,1616
2017-06-19T05:28:21.656Z,1620
2017-06-19T05:29:22.671Z,1628
2017-06-19T05:30:22.613Z,1632
2017-06-19T05:31:21.937Z,1640
2017-06-19T05:32:22.252Z,1644
2017-06-19T05:33:21.918Z,1652
2017-06-19T05:34:21.913Z,1656
2017-06-19T05:35:22.215Z,1668
2017-06-19T05:36:22.216Z,1672
2017-06-19T05:37:21.888Z,1684
2017-06-19T05:38:21.570Z,1688
2017-06-19T05:39:22.180Z,1692
2017-06-19T05:40:22.179Z,1704
2017-06-19T05:41:21.540Z,1704
2017-06-19T05:42:22.160Z,1708
2017-06-19T05:43:21.831Z,1716
2017-06-19T05:44:21.872Z,1720
2017-06-19T05:45:21.822Z,1728
2017-06-19T05:46:22.432Z,1732
2017-06-19T05:47:22.114Z,1740
2017-06-19T05:48:22.098Z,1744
2017-06-19T05:49:21.472Z,1752
2017-06-19T05:50:22.082Z,1756
2017-06-19T05:51:21.761Z,1764
2017-06-19T05:52:22.071Z,1768
2017-06-19T05:53:22.054Z,1776
2017-06-19T05:54:22.361Z,1784
2017-06-19T05:55:22.038Z,1792
2017-06-19T05:56:22.389Z,1800
2017-06-19T05:57:22.335Z,1808
2017-06-19T05:58:22.019Z,1816
2017-06-19T05:59:21.383Z,1824
2017-06-19T06:00:22.313Z,1832
2017-06-19T06:01:21.990Z,1836
2017-06-19T06:02:21.982Z,1844
2017-06-19T06:03:21.977Z,1852
2017-06-19T06:04:21.958Z,1860
2017-06-19T06:05:21.645Z,1864
2017-06-19T06:06:22.255Z,1876
2017-06-19T06:07:21.944Z,1884
2017-06-19T06:08:21.618Z,1888
2017-06-19T06:09:21.294Z,1892
2017-06-19T06:10:22.222Z,1904
2017-06-19T06:11:22.222Z,1908
2017-06-19T06:12:22.209Z,1916
2017-06-19T06:13:21.883Z,1924
2017-06-19T06:14:21.877Z,1936
2017-06-19T06:15:21.561Z,1948
2017-06-19T06:16:22.172Z,1988
2017-06-19T06:17:21.852Z,6032
2017-06-19T06:18:22.159Z,13280
2017-06-19T06:19:21.840Z,18144
2017-06-19T06:20:21.830Z,19200
2017-06-19T06:21:21.825Z,20032
2017-06-19T06:22:21.501Z,21312
2017-06-19T06:23:21.814Z,24224
2017-06-19T06:24:22.112Z,23072
2017-06-19T06:25:21.798Z,11148
2017-06-19T06:26:21.475Z,2900
2017-06-19T06:27:21.778Z,1988
2017-06-19T06:28:22.085Z,1988
2017-06-19T06:29:21.768Z,2000
2017-06-19T06:30:21.444Z,2008
2017-06-19T06:31:21.754Z,2012
2017-06-19T06:32:21.744Z,2020
2017-06-19T06:33:22.057Z,2032
2017-06-19T06:34:21.735Z,2036
2017-06-19T06:35:21.724Z,2040
2017-06-19T06:36:21.719Z,2044
2017-06-19T06:37:22.028Z,2056
2017-06-19T06:38:21.079Z,2064
2017-06-19T06:39:21.386Z,2076
2017-06-19T06:40:21.378Z,2084
2017-06-19T06:41:21.689Z,2092
2017-06-19T06:42:21.683Z,2112
2017-06-19T06:43:21.669Z,5320
2017-06-19T06:44:21.351Z,13156
2017-06-19T06:45:21.972Z,22240
2017-06-19T06:46:21.348Z,25920
2017-06-19T06:47:21.336Z,27712
2017-06-19T06:48:21.011Z,31712
2017-06-19T06:49:21.630Z,34560
2017-06-19T06:50:21.628Z,33056
2017-06-19T06:51:21.648Z,22912
2017-06-19T06:52:21.303Z,10356
2017-06-19T06:53:21.610Z,2648
2017-06-19T06:54:21.609Z,2436
2017-06-19T06:55:21.613Z,2352
2017-06-19T06:56:21.285Z,2316
2017-06-19T06:57:21.284Z,2304
2017-06-19T06:58:21.901Z,2300
2017-06-19T06:59:20.957Z,2308
2017-06-19T07:00:21.580Z,2316
2017-06-19T07:01:21.257Z,2332
2017-06-19T07:02:21.249Z,5972
2017-06-19T07:03:20.935Z,21088
2017-06-19T07:04:21.240Z,25696
2017-06-19T07:05:21.547Z,10816
2017-06-19T07:06:21.540Z,2492
2017-06-19T07:07:21.854Z,2476
2017-06-19T07:08:21.845Z,2464
2017-06-19T07:09:21.540Z,2424
2017-06-19T07:10:21.539Z,2408
2017-06-19T07:11:21.518Z,2408
2017-06-19T07:12:21.823Z,2424
2017-06-19T07:13:21.504Z,2444
2017-06-19T07:14:20.877Z,2464
2017-06-19T07:15:20.875Z,2488
2017-06-19T07:16:21.181Z,2524
2017-06-19T07:17:21.796Z,3240
2017-06-19T07:18:21.481Z,12524
2017-06-19T07:19:21.784Z,27648
2017-06-19T07:20:21.155Z,41472
2017-06-19T07:21:21.465Z,47520
2017-06-19T07:22:21.466Z,47680
2017-06-19T07:23:21.774Z,47136
2017-06-19T07:24:21.460Z,47072
2017-06-19T07:25:21.455Z,48288
2017-06-19T07:26:21.136Z,48864
2017-06-19T07:27:21.446Z,48256
2017-06-19T07:28:21.759Z,48256
2017-06-19T07:29:21.446Z,50048
2017-06-19T07:30:21.448Z,52000
2017-06-19T07:31:21.127Z,51872
2017-06-19T07:32:21.129Z,51360
2017-06-19T07:33:21.746Z,52160
2017-06-19T07:34:21.129Z,53472
2017-06-19T07:35:20.811Z,53280
2017-06-19T07:36:21.127Z,52384
2017-06-19T07:37:21.434Z,53152
2017-06-19T07:38:21.431Z,54944
2017-06-19T07:39:21.745Z,54880
2017-06-19T07:40:20.806Z,53024
2017-06-19T07:41:21.429Z,51456
2017-06-19T07:42:21.430Z,52064
2017-06-19T07:43:21.425Z,54080
2017-06-19T07:44:21.127Z,55584
2017-06-19T07:45:21.745Z,57184
2017-06-19T07:46:21.128Z,60832
2017-06-19T07:47:21.124Z,63584
2017-06-19T07:48:21.161Z,62400
2017-06-19T07:49:21.126Z,58912
2017-06-19T07:50:21.439Z,57120
2017-06-19T07:51:21.444Z,58016
2017-06-19T07:52:21.441Z,58560
2017-06-19T07:53:21.756Z,58912
2017-06-19T07:54:21.445Z,59520
2017-06-19T07:55:21.449Z,60960
2017-06-19T07:56:21.446Z,61152
2017-06-19T07:57:21.831Z,57664
2017-06-19T07:58:21.451Z,53856
2017-06-19T07:59:21.450Z,53888
2017-06-19T08:00:21.456Z,57312
2017-06-19T08:01:21.773Z,59840
2017-06-19T08:02:21.458Z,59296
2017-06-19T08:03:21.780Z,56544
2017-06-19T08:04:21.474Z,53728
2017-06-19T08:05:21.788Z,53696
2017-06-19T08:06:21.157Z,55712
2017-06-19T08:07:21.478Z,59136
2017-06-19T08:08:21.827Z,65024
2017-06-19T08:09:21.167Z,67968
2017-06-19T08:10:21.478Z,67840
2017-06-19T08:11:21.791Z,61248
2017-06-19T08:12:21.173Z,52288
2017-06-19T08:13:21.798Z,46144
2017-06-19T08:14:21.802Z,47040
2017-06-19T08:15:21.806Z,53216
2017-06-19T08:16:21.180Z,61888
2017-06-19T08:17:21.811Z,68416
2017-06-19T08:18:21.499Z,73056
2017-06-19T08:19:20.880Z,73696
2017-06-19T08:20:21.509Z,69408
2017-06-19T08:21:21.192Z,62912
2017-06-19T08:22:21.830Z,57600
2017-06-19T08:23:20.893Z,56864
2017-06-19T08:24:21.517Z,59968
2017-06-19T08:25:21.837Z,66048
2017-06-19T08:26:21.842Z,70400
2017-06-19T08:27:21.223Z,71200
2017-06-19T08:28:20.939Z,69824
2017-06-19T08:29:21.227Z,66400
2017-06-19T08:30:21.543Z,61536
2017-06-19T08:31:21.232Z,58720
2017-06-19T08:32:21.548Z,59648
2017-06-19T08:33:21.863Z,64864
2017-06-19T08:34:21.556Z,71296
2017-06-19T08:35:21.558Z,74080
2017-06-19T08:36:21.876Z,75488
2017-06-19T08:37:21.560Z,74240
2017-06-19T08:38:21.259Z,70816
2017-06-19T08:39:21.882Z,66688
2017-06-19T08:40:21.269Z,63328
2017-06-19T08:41:21.580Z,61952
2017-06-19T08:42:21.904Z,62272
2017-06-19T08:43:21.583Z,64608
2017-06-19T08:44:20.958Z,67616
2017-06-19T08:45:21.277Z,68352
2017-06-19T08:46:21.318Z,67008
2017-06-19T08:47:21.599Z,65472
2017-06-19T08:48:21.606Z,62368
2017-06-19T08:49:21.613Z,60512
2017-06-19T08:50:21.612Z,61472
2017-06-19T08:51:21.311Z,57504
2017-06-19T08:52:21.975Z,40512
2017-06-19T08:53:21.313Z,31264
2017-06-19T08:54:21.631Z,37568
2017-06-19T08:55:21.630Z,36288
2017-06-19T08:56:21.952Z,24512
2017-06-19T08:57:21.636Z,22656
2017-06-19T08:58:21.636Z,35552
2017-06-19T08:59:21.645Z,26592
2017-06-19T09:00:21.962Z,8628
2017-06-19T09:01:21.338Z,4620
2017-06-19T09:02:21.655Z,5820
2017-06-19T09:03:21.685Z,17568
2017-06-19T09:04:21.659Z,22368
2017-06-19T09:05:21.658Z,17600
2017-06-19T09:06:21.970Z,11708
2017-06-19T09:07:21.348Z,16992
2017-06-19T09:08:21.349Z,31776
2017-06-19T09:09:21.666Z,38496
2017-06-19T09:10:21.354Z,46624
2017-06-19T09:11:21.355Z,41088
2017-06-19T09:12:21.991Z,45440
2017-06-19T09:13:21.981Z,63808
2017-06-19T09:14:21.668Z,83200
2017-06-19T09:15:21.673Z,83744
2017-06-19T09:16:21.671Z,81248
2017-06-19T09:17:21.675Z,80864
2017-06-19T09:18:21.678Z,80800
2017-06-19T09:19:21.682Z,84544
2017-06-19T09:20:21.368Z,89408
2017-06-19T09:21:21.372Z,91744
2017-06-19T09:22:21.371Z,92448
2017-06-19T09:23:21.374Z,92288
2017-06-19T09:24:21.693Z,85024
2017-06-19T09:25:21.700Z,81728
2017-06-19T09:26:22.010Z,78592
2017-06-19T09:27:22.047Z,75328
2017-06-19T09:28:22.012Z,75232
2017-06-19T09:29:21.398Z,74688
2017-06-19T09:30:21.911Z,77568
2017-06-19T09:31:21.720Z,80992
2017-06-19T09:32:21.723Z,84960
2017-06-19T09:33:21.406Z,85248
2017-06-19T09:34:21.727Z,83872
2017-06-19T09:35:22.044Z,81024
2017-06-19T09:36:21.427Z,78848
2017-06-19T09:37:21.119Z,78592
2017-06-19T09:38:22.059Z,80736
2017-06-19T09:39:21.123Z,83200
2017-06-19T09:40:22.066Z,86912
2017-06-19T09:41:21.756Z,90624
2017-06-19T09:42:21.459Z,93344
2017-06-19T09:43:21.771Z,93312
2017-06-19T09:44:21.464Z,91136
2017-06-19T09:45:22.105Z,87904
2017-06-19T09:46:21.778Z,83744
2017-06-19T09:47:21.792Z,82496
2017-06-19T09:48:22.102Z,81408
2017-06-19T09:49:21.798Z,81440
2017-06-19T09:50:21.801Z,83648
2017-06-19T09:51:21.808Z,87584
2017-06-19T09:52:21.809Z,88192
2017-06-19T09:53:21.513Z,87424
2017-06-19T09:54:22.131Z,85056
2017-06-19T09:55:22.147Z,82528
2017-06-19T09:56:21.826Z,83008
2017-06-19T09:57:22.150Z,83072
2017-06-19T09:58:21.843Z,84128
2017-06-19T09:59:21.899Z,87200
2017-06-19T10:00:21.594Z,89600
2017-06-19T10:01:21.228Z,88064
2017-06-19T10:02:22.169Z,86464
2017-06-19T10:03:21.862Z,84032
2017-06-19T10:04:21.552Z,80576
2017-06-19T10:05:22.182Z,80192
2017-06-19T10:06:21.877Z,80992
2017-06-19T10:07:22.189Z,84064
2017-06-19T10:08:21.258Z,87808
2017-06-19T10:09:21.889Z,88896
2017-06-19T10:10:21.896Z,89376
2017-06-19T10:11:21.907Z,87168
2017-06-19T10:12:21.904Z,83712
2017-06-19T10:13:22.230Z,80448
2017-06-19T10:14:21.606Z,79104
2017-06-19T10:15:21.608Z,79872
2017-06-19T10:16:21.928Z,83008
2017-06-19T10:17:21.934Z,89216
2017-06-19T10:18:21.622Z,93280
2017-06-19T10:19:21.627Z,96544
2017-06-19T10:20:21.952Z,97760
2017-06-19T10:21:21.642Z,96224
2017-06-19T10:22:21.964Z,92288
2017-06-19T10:23:22.284Z,88736
2017-06-19T10:24:21.967Z,85248
2017-06-19T10:25:21.972Z,83424
2017-06-19T10:26:21.666Z,82784
2017-06-19T10:27:21.673Z,81824
2017-06-19T10:28:21.679Z,82816
2017-06-19T10:29:21.997Z,82880
2017-06-19T10:30:21.707Z,83648
2017-06-19T10:31:21.704Z,86400
2017-06-19T10:32:21.707Z,88576
2017-06-19T10:33:22.339Z,90496
2017-06-19T10:34:21.474Z,91712
2017-06-19T10:35:22.041Z,95552
2017-06-19T10:36:21.725Z,97856
2017-06-19T10:37:21.740Z,101664
2017-06-19T10:38:22.055Z,102752
2017-06-19T10:39:21.745Z,100000
2017-06-19T10:40:21.760Z,95520
2017-06-19T10:41:22.379Z,89152
2017-06-19T10:42:22.101Z,83072
2017-06-19T10:43:21.775Z,79200
2017-06-19T10:44:21.777Z,79904
2017-06-19T10:45:22.096Z,82176
2017-06-19T10:46:21.480Z,86688
2017-06-19T10:47:22.142Z,89120
2017-06-19T10:48:22.114Z,92960
2017-06-19T10:49:22.126Z,96448
2017-06-19T10:50:21.819Z,97120
2017-06-19T10:51:22.446Z,96256
2017-06-19T10:52:22.463Z,95072
2017-06-19T10:53:22.467Z,94144
2017-06-19T10:54:21.841Z,94272
2017-06-19T10:55:22.161Z,96000
2017-06-19T10:56:22.168Z,99680
2017-06-19T10:57:21.871Z,100992
2017-06-19T10:58:22.182Z,99200
2017-06-19T10:59:22.193Z,100352
2017-06-19T11:00:22.506Z,94784
2017-06-19T11:01:22.206Z,86080
2017-06-19T11:02:22.208Z,78144
2017-06-19T11:03:22.215Z,75232
2017-06-19T11:04:22.221Z,76768
2017-06-19T11:05:22.224Z,80320
2017-06-19T11:06:22.236Z,84736
2017-06-19T11:07:21.927Z,90688
2017-06-19T11:08:22.245Z,98048
2017-06-19T11:09:22.256Z,105120
2017-06-19T11:10:21.949Z,109024
2017-06-19T11:11:22.586Z,109696
2017-06-19T11:12:22.271Z,108704
2017-06-19T11:13:21.965Z,106048
2017-06-19T11:14:21.666Z,101248
2017-06-19T11:15:21.982Z,92672
2017-06-19T11:16:22.617Z,86144
2017-06-19T11:17:22.310Z,82560
2017-06-19T11:18:22.321Z,78208
2017-06-19T11:19:22.014Z,76512
2017-06-19T11:20:22.346Z,75808
2017-06-19T11:21:22.650Z,80736
2017-06-19T11:22:21.720Z,91360
2017-06-19T11:23:22.667Z,100192
2017-06-19T11:24:21.738Z,109184
2017-06-19T11:25:22.695Z,116320
2017-06-19T11:26:22.062Z,118656
2017-06-19T11:27:22.414Z,115392
2017-06-19T11:28:21.762Z,107712
2017-06-19T11:29:22.705Z,97184
2017-06-19T11:30:22.602Z,87168
2017-06-19T11:31:22.405Z,79232
2017-06-19T11:32:22.408Z,72832
2017-06-19T11:33:22.449Z,72800
2017-06-19T11:34:22.429Z,76160
2017-06-19T11:35:22.763Z,84128
2017-06-19T11:36:22.753Z,93472
2017-06-19T11:37:22.134Z,99488
2017-06-19T11:38:22.451Z,101760
2017-06-19T11:39:21.835Z,103296
2017-06-19T11:40:22.781Z,103328
2017-06-19T11:41:22.160Z,98656
2017-06-19T11:42:22.478Z,92416
2017-06-19T11:43:22.174Z,87232
2017-06-19T11:44:21.871Z,84320
2017-06-19T11:45:22.501Z,80672
2017-06-19T11:46:21.880Z,78272
2017-06-19T11:47:21.886Z,75808
2017-06-19T11:48:22.865Z,74720
2017-06-19T11:49:22.530Z,73824
2017-06-19T11:50:22.532Z,73120
2017-06-19T11:51:22.851Z,73504
2017-06-19T11:52:22.554Z,79008
2017-06-19T11:53:22.560Z,87456
2017-06-19T11:54:22.561Z,95424
2017-06-19T11:55:22.592Z,97568
2017-06-19T11:56:22.259Z,97376
2017-06-19T11:57:22.900Z,95424
2017-06-19T11:58:22.590Z,89856
2017-06-19T11:59:22.595Z,82336
2017-06-19T12:00:22.288Z,77312
2017-06-19T12:01:22.613Z,74144
2017-06-19T12:02:22.929Z,72192
2017-06-19T12:03:22.626Z,72288
2017-06-19T12:04:22.945Z,72800
2017-06-19T12:05:22.018Z,75680
2017-06-19T12:06:22.647Z,80448
2017-06-19T12:07:22.968Z,84288
2017-06-19T12:08:22.348Z,87168
2017-06-19T12:09:22.663Z,85216
2017-06-19T12:10:22.357Z,82752
2017-06-19T12:11:22.677Z,81312
2017-06-19T12:12:22.377Z,78176
2017-06-19T12:13:22.379Z,73504
2017-06-19T12:14:22.703Z,69568
2017-06-19T12:15:22.713Z,69376
2017-06-19T12:16:23.023Z,72192
2017-06-19T12:17:22.713Z,76224
2017-06-19T12:18:22.410Z,81696
2017-06-19T12:19:22.732Z,88896
2017-06-19T12:20:22.735Z,96640
2017-06-19T12:21:22.752Z,101856
2017-06-19T12:22:22.781Z,100896
2017-06-19T12:23:23.069Z,97888
2017-06-19T12:24:23.096Z,95968
2017-06-19T12:25:22.784Z,95200
2017-06-19T12:26:22.151Z,92864
2017-06-19T12:27:22.469Z,89472
2017-06-19T12:28:22.485Z,87008
2017-06-19T12:29:22.797Z,89056
2017-06-19T12:30:23.124Z,87744
2017-06-19T12:31:22.813Z,85600
2017-06-19T12:32:22.199Z,86112
2017-06-19T12:33:22.827Z,89792
2017-06-19T12:34:23.150Z,90048
2017-06-19T12:35:23.153Z,87040
2017-06-19T12:36:23.177Z,80512
2017-06-19T12:37:23.175Z,78208
2017-06-19T12:38:23.200Z,80640
2017-06-19T12:39:23.197Z,79712
2017-06-19T12:40:22.879Z,79904
2017-06-19T12:41:22.574Z,80448
2017-06-19T12:42:22.895Z,81184
2017-06-19T12:43:22.893Z,79808
2017-06-19T12:44:22.903Z,75808
2017-06-19T12:45:22.595Z,70560
2017-06-19T12:46:22.926Z,66560
2017-06-19T12:47:22.612Z,71008
2017-06-19T12:48:23.246Z,77952
2017-06-19T12:49:22.628Z,85216
2017-06-19T12:50:22.942Z,90848
2017-06-19T12:51:22.950Z,94304
2017-06-19T12:52:22.965Z,95328
2017-06-19T12:53:22.972Z,92352
2017-06-19T12:54:22.666Z,85184
2017-06-19T12:55:23.300Z,79872
2017-06-19T12:56:22.984Z,79392
2017-06-19T12:57:22.375Z,81664
2017-06-19T12:58:22.695Z,84704
2017-06-19T12:59:23.009Z,92288
2017-06-19T13:00:22.705Z,97280
2017-06-19T13:01:22.710Z,100224
2017-06-19T13:02:22.403Z,96704
2017-06-19T13:03:23.356Z,88704
2017-06-19T13:04:23.360Z,81152
2017-06-19T13:05:23.056Z,72896
2017-06-19T13:06:23.372Z,66432
2017-06-19T13:07:23.077Z,63360
2017-06-19T13:08:23.081Z,65152
2017-06-19T13:09:23.397Z,72544
2017-06-19T13:10:22.773Z,80832
2017-06-19T13:11:23.094Z,87904
2017-06-19T13:12:22.476Z,94816
2017-06-19T13:13:22.797Z,99392
2017-06-19T13:14:22.495Z,99104
2017-06-19T13:15:22.809Z,98592
2017-06-19T13:16:23.445Z,96736
2017-06-19T13:17:23.138Z,94784
2017-06-19T13:18:23.150Z,93120
2017-06-19T13:19:22.526Z,91680
2017-06-19T13:20:22.848Z,93792
2017-06-19T13:21:23.492Z,93440
2017-06-19T13:22:22.856Z,92352
2017-06-19T13:23:22.865Z,91456
2017-06-19T13:24:23.185Z,90176